Terminal Aerodrome Forecast
Issued by NWS

Home | Current Version | Previous Version | Text Only | Print | Product List | Glossary On
Versions: 1 2 3 4 5 6 7 8 9 10 11 12 13 14 15 16 17 18 19 20
000
FTUS44 KTSA 070520
TAFRVS
TAF
KRVS 070520Z 0706/0806 04004KT P6SM OVC170
     FM070900 05006KT P6SM OVC100
     FM071300 06008KT P6SM OVC050
     FM072000 04008KT P6SM BKN025 OVC050
     FM080000 01012KT P6SM OVC025=

USA.gov is the U.S. government's official web portal to all federal, state and local government web resources and services.